sensor_id;sensor_type;location;lat;lon;timestamp;temperature;humidity
71837;DHT22;59686;51.716;7.016;2023-07-13T00:00:41;24.10;61.30
71837;DHT22;59686;51.716;7.016;2023-07-13T00:03:07;24.10;61.30
71837;DHT22;59686;51.716;7.016;2023-07-13T00:05:33;24.10;61.30
71837;DHT22;59686;51.716;7.016;2023-07-13T00:07:58;24.00;61.30
71837;DHT22;59686;51.716;7.016;2023-07-13T00:10:24;24.00;61.30
71837;DHT22;59686;51.716;7.016;2023-07-13T00:12:51;24.00;61.40
71837;DHT22;59686;51.716;7.016;2023-07-13T00:15:23;24.00;61.40
71837;DHT22;59686;51.716;7.016;2023-07-13T00:17:50;24.00;61.50
71837;DHT22;59686;51.716;7.016;2023-07-13T00:20:16;24.00;61.50
71837;DHT22;59686;51.716;7.016;2023-07-13T00:22:42;24.00;61.60
71837;DHT22;59686;51.716;7.016;2023-07-13T00:25:10;24.00;61.60
71837;DHT22;59686;51.716;7.016;2023-07-13T00:27:37;23.90;61.60
71837;DHT22;59686;51.716;7.016;2023-07-13T00:30:02;23.90;61.60
71837;DHT22;59686;51.716;7.016;2023-07-13T00:32:28;23.90;61.60
71837;DHT22;59686;51.716;7.016;2023-07-13T00:34:55;23.90;61.60
71837;DHT22;59686;51.716;7.016;2023-07-13T00:37:22;23.90;61.60
71837;DHT22;59686;51.716;7.016;2023-07-13T00:39:47;23.90;61.60
71837;DHT22;59686;51.716;7.016;2023-07-13T00:42:14;23.90;61.70
71837;DHT22;59686;51.716;7.016;2023-07-13T00:44:40;23.90;61.70
71837;DHT22;59686;51.716;7.016;2023-07-13T00:47:06;23.90;62.50
71837;DHT22;59686;51.716;7.016;2023-07-13T00:49:35;23.90;61.70
71837;DHT22;59686;51.716;7.016;2023-07-13T00:52:08;23.90;61.80
71837;DHT22;59686;51.716;7.016;2023-07-13T00:54:44;23.90;61.70
71837;DHT22;59686;51.716;7.016;2023-07-13T00:57:14;23.80;61.80
71837;DHT22;59686;51.716;7.016;2023-07-13T00:59:45;23.80;61.70
71837;DHT22;59686;51.716;7.016;2023-07-13T01:02:16;23.80;61.80
71837;DHT22;59686;51.716;7.016;2023-07-13T01:04:42;23.80;61.80
71837;DHT22;59686;51.716;7.016;2023-07-13T01:07:09;23.80;61.90
71837;DHT22;59686;51.716;7.016;2023-07-13T01:09:36;23.80;61.80
71837;DHT22;59686;51.716;7.016;2023-07-13T01:12:02;23.80;61.80
71837;DHT22;59686;51.716;7.016;2023-07-13T01:14:28;23.70;61.80
71837;DHT22;59686;51.716;7.016;2023-07-13T01:16:54;23.70;61.80
71837;DHT22;59686;51.716;7.016;2023-07-13T01:19:27;23.70;61.80
71837;DHT22;59686;51.716;7.016;2023-07-13T01:21:55;23.70;61.80
71837;DHT22;59686;51.716;7.016;2023-07-13T01:24:21;23.70;61.80
71837;DHT22;59686;51.716;7.016;2023-07-13T01:26:46;23.70;61.80
71837;DHT22;59686;51.716;7.016;2023-07-13T01:29:12;23.70;61.80
71837;DHT22;59686;51.716;7.016;2023-07-13T01:31:38;23.70;61.80
71837;DHT22;59686;51.716;7.016;2023-07-13T01:34:03;23.70;61.90
71837;DHT22;59686;51.716;7.016;2023-07-13T01:36:30;23.70;61.90
71837;DHT22;59686;51.716;7.016;2023-07-13T01:38:57;23.70;61.90
71837;DHT22;59686;51.716;7.016;2023-07-13T01:41:23;23.60;61.80
71837;DHT22;59686;51.716;7.016;2023-07-13T01:43:48;23.60;62.60
71837;DHT22;59686;51.716;7.016;2023-07-13T01:46:14;23.60;61.80
71837;DHT22;59686;51.716;7.016;2023-07-13T01:48:40;23.60;61.80
71837;DHT22;59686;51.716;7.016;2023-07-13T01:51:05;23.60;61.70
71837;DHT22;59686;51.716;7.016;2023-07-13T01:53:31;23.60;61.60
71837;DHT22;59686;51.716;7.016;2023-07-13T01:55:57;23.60;61.60
71837;DHT22;59686;51.716;7.016;2023-07-13T01:58:22;23.60;61.60
71837;DHT22;59686;51.716;7.016;2023-07-13T02:00:49;23.50;61.50
71837;DHT22;59686;51.716;7.016;2023-07-13T02:03:15;23.50;61.50
71837;DHT22;59686;51.716;7.016;2023-07-13T02:05:44;23.50;61.50
71837;DHT22;59686;51.716;7.016;2023-07-13T02:08:10;23.50;61.50
71837;DHT22;59686;51.716;7.016;2023-07-13T02:10:36;23.50;61.50
71837;DHT22;59686;51.716;7.016;2023-07-13T02:13:06;23.50;61.50
71837;DHT22;59686;51.716;7.016;2023-07-13T02:15:32;23.50;62.30
71837;DHT22;59686;51.716;7.016;2023-07-13T02:17:58;23.50;61.50
71837;DHT22;59686;51.716;7.016;2023-07-13T02:20:24;23.50;61.50
71837;DHT22;59686;51.716;7.016;2023-07-13T02:22:51;23.50;61.50
71837;DHT22;59686;51.716;7.016;2023-07-13T02:25:17;23.40;61.50
71837;DHT22;59686;51.716;7.016;2023-07-13T02:27:43;23.40;61.50
71837;DHT22;59686;51.716;7.016;2023-07-13T02:30:09;23.40;61.50
71837;DHT22;59686;51.716;7.016;2023-07-13T02:32:36;23.40;61.50
71837;DHT22;59686;51.716;7.016;2023-07-13T02:35:01;23.40;61.60
71837;DHT22;59686;51.716;7.016;2023-07-13T02:37:28;23.40;61.60
71837;DHT22;59686;51.716;7.016;2023-07-13T02:39:55;23.40;61.60
71837;DHT22;59686;51.716;7.016;2023-07-13T02:42:21;23.40;61.60
71837;DHT22;59686;51.716;7.016;2023-07-13T02:44:46;23.30;61.60
71837;DHT22;59686;51.716;7.016;2023-07-13T02:47:12;23.30;61.50
71837;DHT22;59686;51.716;7.016;2023-07-13T02:49:38;23.40;61.50
71837;DHT22;59686;51.716;7.016;2023-07-13T02:52:04;23.30;61.50
71837;DHT22;59686;51.716;7.016;2023-07-13T02:54:30;23.30;61.50
71837;DHT22;59686;51.716;7.016;2023-07-13T02:56:56;23.30;61.50
71837;DHT22;59686;51.716;7.016;2023-07-13T02:59:22;23.30;61.40
71837;DHT22;59686;51.716;7.016;2023-07-13T03:01:47;23.30;61.40
71837;DHT22;59686;51.716;7.016;2023-07-13T03:04:13;23.30;61.40
71837;DHT22;59686;51.716;7.016;2023-07-13T03:06:39;23.30;61.40
71837;DHT22;59686;51.716;7.016;2023-07-13T03:09:05;23.20;61.30
71837;DHT22;59686;51.716;7.016;2023-07-13T03:11:30;23.20;61.30
71837;DHT22;59686;51.716;7.016;2023-07-13T03:13:57;23.20;61.20
71837;DHT22;59686;51.716;7.016;2023-07-13T03:16:23;23.20;61.20
71837;DHT22;59686;51.716;7.016;2023-07-13T03:18:49;23.20;61.20
71837;DHT22;59686;51.716;7.016;2023-07-13T03:21:14;23.20;61.20
71837;DHT22;59686;51.716;7.016;2023-07-13T03:23:40;23.20;61.20
71837;DHT22;59686;51.716;7.016;2023-07-13T03:26:09;23.20;61.20
71837;DHT22;59686;51.716;7.016;2023-07-13T03:28:35;23.20;61.20
71837;DHT22;59686;51.716;7.016;2023-07-13T03:31:03;23.20;61.30
71837;DHT22;59686;51.716;7.016;2023-07-13T03:33:29;23.10;61.20
71837;DHT22;59686;51.716;7.016;2023-07-13T03:35:55;23.20;61.20
71837;DHT22;59686;51.716;7.016;2023-07-13T03:38:21;23.10;61.10
71837;DHT22;59686;51.716;7.016;2023-07-13T03:40:47;23.10;61.20
71837;DHT22;59686;51.716;7.016;2023-07-13T03:43:13;23.10;61.30
71837;DHT22;59686;51.716;7.016;2023-07-13T03:45:38;23.10;61.20
71837;DHT22;59686;51.716;7.016;2023-07-13T03:48:04;23.10;61.30
71837;DHT22;59686;51.716;7.016;2023-07-13T03:50:30;23.10;61.20
71837;DHT22;59686;51.716;7.016;2023-07-13T03:52:58;23.10;61.20
71837;DHT22;59686;51.716;7.016;2023-07-13T03:55:23;23.10;61.30
71837;DHT22;59686;51.716;7.016;2023-07-13T04:00:45;23.00;61.30
71837;DHT22;59686;51.716;7.016;2023-07-13T04:03:11;23.10;61.40
71837;DHT22;59686;51.716;7.016;2023-07-13T04:05:37;23.00;61.30
71837;DHT22;59686;51.716;7.016;2023-07-13T04:08:06;23.00;61.30
71837;DHT22;59686;51.716;7.016;2023-07-13T04:10:31;23.00;61.40
71837;DHT22;59686;51.716;7.016;2023-07-13T04:12:57;23.00;61.40
71837;DHT22;59686;51.716;7.016;2023-07-13T04:15:23;23.00;61.50
71837;DHT22;59686;51.716;7.016;2023-07-13T04:17:48;23.00;61.50
71837;DHT22;59686;51.716;7.016;2023-07-13T04:20:14;23.00;61.50
71837;DHT22;59686;51.716;7.016;2023-07-13T04:22:40;22.90;61.50
71837;DHT22;59686;51.716;7.016;2023-07-13T04:25:06;22.90;61.50
71837;DHT22;59686;51.716;7.016;2023-07-13T04:27:31;22.90;61.50
71837;DHT22;59686;51.716;7.016;2023-07-13T04:29:57;22.90;61.60
71837;DHT22;59686;51.716;7.016;2023-07-13T04:32:23;22.90;61.50
71837;DHT22;59686;51.716;7.016;2023-07-13T04:34:49;22.90;61.50
71837;DHT22;59686;51.716;7.016;2023-07-13T04:37:17;22.90;61.50
71837;DHT22;59686;51.716;7.016;2023-07-13T04:39:43;22.90;61.50
71837;DHT22;59686;51.716;7.016;2023-07-13T04:42:08;22.90;61.50
71837;DHT22;59686;51.716;7.016;2023-07-13T04:44:34;22.80;61.50
71837;DHT22;59686;51.716;7.016;2023-07-13T04:47:00;22.80;61.50
71837;DHT22;59686;51.716;7.016;2023-07-13T04:49:26;22.80;61.50
71837;DHT22;59686;51.716;7.016;2023-07-13T04:51:52;22.80;61.50
71837;DHT22;59686;51.716;7.016;2023-07-13T04:54:18;22.80;61.60
71837;DHT22;59686;51.716;7.016;2023-07-13T04:56:43;22.80;61.60
71837;DHT22;59686;51.716;7.016;2023-07-13T04:59:09;22.80;61.60
71837;DHT22;59686;51.716;7.016;2023-07-13T05:01:35;22.80;61.60
71837;DHT22;59686;51.716;7.016;2023-07-13T05:04:01;22.80;61.70
71837;DHT22;59686;51.716;7.016;2023-07-13T05:06:27;22.70;61.70
71837;DHT22;59686;51.716;7.016;2023-07-13T05:08:53;22.70;61.70
71837;DHT22;59686;51.716;7.016;2023-07-13T05:11:19;22.70;61.70
71837;DHT22;59686;51.716;7.016;2023-07-13T05:13:45;22.70;61.70
71837;DHT22;59686;51.716;7.016;2023-07-13T05:16:10;22.70;61.70
71837;DHT22;59686;51.716;7.016;2023-07-13T05:18:36;22.70;61.80
71837;DHT22;59686;51.716;7.016;2023-07-13T05:21:04;22.70;61.80
71837;DHT22;59686;51.716;7.016;2023-07-13T05:23:31;22.70;61.80
71837;DHT22;59686;51.716;7.016;2023-07-13T05:25:57;22.70;61.70
71837;DHT22;59686;51.716;7.016;2023-07-13T05:28:24;22.70;61.80
71837;DHT22;59686;51.716;7.016;2023-07-13T05:30:50;22.70;61.90
71837;DHT22;59686;51.716;7.016;2023-07-13T05:33:16;22.60;61.90
71837;DHT22;59686;51.716;7.016;2023-07-13T05:35:42;22.60;61.90
71837;DHT22;59686;51.716;7.016;2023-07-13T05:38:08;22.60;61.90
71837;DHT22;59686;51.716;7.016;2023-07-13T05:40:33;22.60;61.90
71837;DHT22;59686;51.716;7.016;2023-07-13T05:42:59;22.60;62.00
71837;DHT22;59686;51.716;7.016;2023-07-13T05:45:25;22.60;62.00
71837;DHT22;59686;51.716;7.016;2023-07-13T05:47:51;22.60;62.00
71837;DHT22;59686;51.716;7.016;2023-07-13T05:50:18;22.60;62.30
71837;DHT22;59686;51.716;7.016;2023-07-13T05:52:44;22.60;62.10
71837;DHT22;59686;51.716;7.016;2023-07-13T05:55:09;22.60;62.20
71837;DHT22;59686;51.716;7.016;2023-07-13T05:57:35;22.50;62.20
71837;DHT22;59686;51.716;7.016;2023-07-13T06:00:01;22.50;62.20
71837;DHT22;59686;51.716;7.016;2023-07-13T06:02:27;22.50;62.30
71837;DHT22;59686;51.716;7.016;2023-07-13T06:04:59;22.50;62.30
71837;DHT22;59686;51.716;7.016;2023-07-13T06:07:25;22.50;62.30
71837;DHT22;59686;51.716;7.016;2023-07-13T06:09:51;22.50;62.40
71837;DHT22;59686;51.716;7.016;2023-07-13T06:12:16;22.50;62.40
71837;DHT22;59686;51.716;7.016;2023-07-13T06:14:42;22.50;62.60
71837;DHT22;59686;51.716;7.016;2023-07-13T06:17:08;22.50;62.50
71837;DHT22;59686;51.716;7.016;2023-07-13T06:19:34;22.50;62.60
71837;DHT22;59686;51.716;7.016;2023-07-13T06:22:00;22.40;62.60
71837;DHT22;59686;51.716;7.016;2023-07-13T06:24:26;22.50;62.70
71837;DHT22;59686;51.716;7.016;2023-07-13T06:26:52;22.50;62.70
71837;DHT22;59686;51.716;7.016;2023-07-13T06:29:18;22.40;62.70
71837;DHT22;59686;51.716;7.016;2023-07-13T06:31:43;22.30;62.80
71837;DHT22;59686;51.716;7.016;2023-07-13T06:34:09;22.40;62.90
71837;DHT22;59686;51.716;7.016;2023-07-13T06:36:34;22.50;63.00
71837;DHT22;59686;51.716;7.016;2023-07-13T06:39:02;22.50;63.00
71837;DHT22;59686;51.716;7.016;2023-07-13T06:41:27;22.40;63.20
71837;DHT22;59686;51.716;7.016;2023-07-13T06:43:53;22.40;63.20
71837;DHT22;59686;51.716;7.016;2023-07-13T06:46:23;22.40;63.30
71837;DHT22;59686;51.716;7.016;2023-07-13T06:48:48;22.40;63.40
71837;DHT22;59686;51.716;7.016;2023-07-13T06:51:14;22.40;63.40
71837;DHT22;59686;51.716;7.016;2023-07-13T06:53:40;22.40;63.50
71837;DHT22;59686;51.716;7.016;2023-07-13T06:56:06;22.40;63.60
71837;DHT22;59686;51.716;7.016;2023-07-13T06:58:33;22.40;63.60
71837;DHT22;59686;51.716;7.016;2023-07-13T07:00:59;22.40;63.60
71837;DHT22;59686;51.716;7.016;2023-07-13T07:03:25;22.50;64.50
71837;DHT22;59686;51.716;7.016;2023-07-13T07:05:51;22.40;63.60
71837;DHT22;59686;51.716;7.016;2023-07-13T07:08:17;22.40;63.70
71837;DHT22;59686;51.716;7.016;2023-07-13T07:10:42;22.40;63.90
71837;DHT22;59686;51.716;7.016;2023-07-13T07:13:08;22.30;63.90
71837;DHT22;59686;51.716;7.016;2023-07-13T07:15:35;22.30;63.90
71837;DHT22;59686;51.716;7.016;2023-07-13T07:18:03;22.30;64.10
71837;DHT22;59686;51.716;7.016;2023-07-13T07:20:29;22.30;64.10
71837;DHT22;59686;51.716;7.016;2023-07-13T07:22:56;22.30;64.30
71837;DHT22;59686;51.716;7.016;2023-07-13T07:25:22;22.30;64.20
71837;DHT22;59686;51.716;7.016;2023-07-13T07:27:47;22.30;64.20
71837;DHT22;59686;51.716;7.016;2023-07-13T07:30:13;22.30;64.50
71837;DHT22;59686;51.716;7.016;2023-07-13T07:32:39;22.30;64.50
71837;DHT22;59686;51.716;7.016;2023-07-13T07:35:05;22.20;64.60
71837;DHT22;59686;51.716;7.016;2023-07-13T07:37:31;22.20;64.60
71837;DHT22;59686;51.716;7.016;2023-07-13T07:39:58;22.20;64.60
71837;DHT22;59686;51.716;7.016;2023-07-13T07:42:24;22.20;64.60
71837;DHT22;59686;51.716;7.016;2023-07-13T07:44:50;22.20;64.60
71837;DHT22;59686;51.716;7.016;2023-07-13T07:47:16;22.30;64.70
71837;DHT22;59686;51.716;7.016;2023-07-13T07:49:42;22.30;64.70
71837;DHT22;59686;51.716;7.016;2023-07-13T07:52:08;22.20;64.70
71837;DHT22;59686;51.716;7.016;2023-07-13T07:54:33;22.30;64.80
71837;DHT22;59686;51.716;7.016;2023-07-13T07:56:59;22.30;64.90
71837;DHT22;59686;51.716;7.016;2023-07-13T07:59:25;22.20;64.80
71837;DHT22;59686;51.716;7.016;2023-07-13T08:01:50;22.20;64.90
71837;DHT22;59686;51.716;7.016;2023-07-13T08:04:16;22.20;65.40
71837;DHT22;59686;51.716;7.016;2023-07-13T08:06:42;22.00;66.30
71837;DHT22;59686;51.716;7.016;2023-07-13T08:09:08;21.90;67.20
71837;DHT22;59686;51.716;7.016;2023-07-13T08:11:34;21.90;67.30
71837;DHT22;59686;51.716;7.016;2023-07-13T08:14:00;21.90;67.40
71837;DHT22;59686;51.716;7.016;2023-07-13T08:16:26;21.90;67.10
71837;DHT22;59686;51.716;7.016;2023-07-13T08:18:52;22.00;66.90
71837;DHT22;59686;51.716;7.016;2023-07-13T08:21:17;22.10;66.80
71837;DHT22;59686;51.716;7.016;2023-07-13T08:23:45;22.10;66.60
71837;DHT22;59686;51.716;7.016;2023-07-13T08:26:11;22.20;66.50
71837;DHT22;59686;51.716;7.016;2023-07-13T08:28:37;22.20;66.50
71837;DHT22;59686;51.716;7.016;2023-07-13T08:31:05;22.20;66.40
71837;DHT22;59686;51.716;7.016;2023-07-13T08:33:31;22.20;66.50
71837;DHT22;59686;51.716;7.016;2023-07-13T08:35:56;22.20;66.50
71837;DHT22;59686;51.716;7.016;2023-07-13T08:38:22;22.20;66.40
71837;DHT22;59686;51.716;7.016;2023-07-13T08:40:53;22.20;66.40
71837;DHT22;59686;51.716;7.016;2023-07-13T08:43:27;22.20;66.40
71837;DHT22;59686;51.716;7.016;2023-07-13T08:46:16;22.20;67.00
71837;DHT22;59686;51.716;7.016;2023-07-13T08:48:53;22.20;66.20
71837;DHT22;59686;51.716;7.016;2023-07-13T08:56:43;22.20;66.10
71837;DHT22;59686;51.716;7.016;2023-07-13T08:59:13;22.20;66.20
71837;DHT22;59686;51.716;7.016;2023-07-13T09:01:54;22.20;66.10
71837;DHT22;59686;51.716;7.016;2023-07-13T09:04:28;22.20;66.10
71837;DHT22;59686;51.716;7.016;2023-07-13T09:07:17;22.20;66.00
71837;DHT22;59686;51.716;7.016;2023-07-13T09:12:33;22.20;66.00
71837;DHT22;59686;51.716;7.016;2023-07-13T09:15:03;22.20;66.00
71837;DHT22;59686;51.716;7.016;2023-07-13T09:17:43;22.20;66.00
71837;DHT22;59686;51.716;7.016;2023-07-13T09:20:30;22.20;66.00
71837;DHT22;59686;51.716;7.016;2023-07-13T09:22:59;22.20;66.00
71837;DHT22;59686;51.716;7.016;2023-07-13T09:25:34;22.20;66.00
71837;DHT22;59686;51.716;7.016;2023-07-13T09:28:19;22.20;65.90
71837;DHT22;59686;51.716;7.016;2023-07-13T09:31:04;22.20;66.00
71837;DHT22;59686;51.716;7.016;2023-07-13T09:33:31;22.20;66.80
71837;DHT22;59686;51.716;7.016;2023-07-13T09:36:00;22.20;66.00
71837;DHT22;59686;51.716;7.016;2023-07-13T09:38:28;22.10;66.00
71837;DHT22;59686;51.716;7.016;2023-07-13T09:43:36;22.20;66.20
71837;DHT22;59686;51.716;7.016;2023-07-13T09:46:02;22.20;66.10
71837;DHT22;59686;51.716;7.016;2023-07-13T09:48:35;22.20;66.20
71837;DHT22;59686;51.716;7.016;2023-07-13T09:51:14;22.20;66.20
71837;DHT22;59686;51.716;7.016;2023-07-13T09:53:43;22.20;66.20
71837;DHT22;59686;51.716;7.016;2023-07-13T09:56:29;22.20;66.30
71837;DHT22;59686;51.716;7.016;2023-07-13T09:58:58;22.20;66.40
71837;DHT22;59686;51.716;7.016;2023-07-13T10:01:37;22.20;66.40
71837;DHT22;59686;51.716;7.016;2023-07-13T10:04:11;22.20;66.40
71837;DHT22;59686;51.716;7.016;2023-07-13T10:06:41;22.20;66.40
71837;DHT22;59686;51.716;7.016;2023-07-13T10:09:09;22.20;66.40
71837;DHT22;59686;51.716;7.016;2023-07-13T10:11:36;22.20;66.50
71837;DHT22;59686;51.716;7.016;2023-07-13T10:14:20;22.10;66.40
71837;DHT22;59686;51.716;7.016;2023-07-13T10:16:52;22.10;66.40
71837;DHT22;59686;51.716;7.016;2023-07-13T10:19:25;22.10;66.50
71837;DHT22;59686;51.716;7.016;2023-07-13T10:21:55;22.10;66.50
71837;DHT22;59686;51.716;7.016;2023-07-13T10:24:23;22.10;66.60
71837;DHT22;59686;51.716;7.016;2023-07-13T10:29:22;22.10;66.50
71837;DHT22;59686;51.716;7.016;2023-07-13T10:31:49;22.20;66.50
71837;DHT22;59686;51.716;7.016;2023-07-13T10:34:15;22.20;66.50
71837;DHT22;59686;51.716;7.016;2023-07-13T10:36:48;22.20;66.40
71837;DHT22;59686;51.716;7.016;2023-07-13T10:39:20;22.20;66.30
71837;DHT22;59686;51.716;7.016;2023-07-13T10:42:11;22.20;66.30
71837;DHT22;59686;51.716;7.016;2023-07-13T10:44:37;22.20;66.10
71837;DHT22;59686;51.716;7.016;2023-07-13T10:47:07;22.20;65.90
71837;DHT22;59686;51.716;7.016;2023-07-13T10:49:34;22.20;65.80
71837;DHT22;59686;51.716;7.016;2023-07-13T10:52:01;22.20;65.70
71837;DHT22;59686;51.716;7.016;2023-07-13T10:54:34;22.20;65.90
71837;DHT22;59686;51.716;7.016;2023-07-13T10:57:19;22.20;65.80
71837;DHT22;59686;51.716;7.016;2023-07-13T11:00:16;22.20;65.80
71837;DHT22;59686;51.716;7.016;2023-07-13T11:02:42;22.20;65.70
71837;DHT22;59686;51.716;7.016;2023-07-13T11:08:02;22.20;65.50
71837;DHT22;59686;51.716;7.016;2023-07-13T11:13:55;22.30;65.40
71837;DHT22;59686;51.716;7.016;2023-07-13T11:18:50;22.30;65.40
71837;DHT22;59686;51.716;7.016;2023-07-13T11:21:26;22.30;65.40
71837;DHT22;59686;51.716;7.016;2023-07-13T11:24:13;22.30;65.30
71837;DHT22;59686;51.716;7.016;2023-07-13T11:31:50;22.30;65.00
71837;DHT22;59686;51.716;7.016;2023-07-13T11:34:20;22.40;64.90
71837;DHT22;59686;51.716;7.016;2023-07-13T11:36:47;22.40;65.00
71837;DHT22;59686;51.716;7.016;2023-07-13T11:41:50;22.40;64.40
71837;DHT22;59686;51.716;7.016;2023-07-13T11:44:21;22.40;64.10
71837;DHT22;59686;51.716;7.016;2023-07-13T11:46:53;22.40;64.10
71837;DHT22;59686;51.716;7.016;2023-07-13T11:49:23;22.50;63.50
71837;DHT22;59686;51.716;7.016;2023-07-13T11:51:49;22.50;63.10
71837;DHT22;59686;51.716;7.016;2023-07-13T11:54:22;22.50;62.70
71837;DHT22;59686;51.716;7.016;2023-07-13T11:56:48;22.50;62.90
71837;DHT22;59686;51.716;7.016;2023-07-13T11:59:15;22.40;62.80
71837;DHT22;59686;51.716;7.016;2023-07-13T12:01:48;22.40;62.70
71837;DHT22;59686;51.716;7.016;2023-07-13T12:04:34;22.40;63.50
71837;DHT22;59686;51.716;7.016;2023-07-13T12:07:11;22.40;62.70
71837;DHT22;59686;51.716;7.016;2023-07-13T12:09:39;22.40;62.90
71837;DHT22;59686;51.716;7.016;2023-07-13T12:12:14;22.40;62.70
71837;DHT22;59686;51.716;7.016;2023-07-13T12:14:56;22.50;62.00
71837;DHT22;59686;51.716;7.016;2023-07-13T12:17:24;22.40;61.00
71837;DHT22;59686;51.716;7.016;2023-07-13T12:19:51;22.40;60.60
71837;DHT22;59686;51.716;7.016;2023-07-13T12:22:19;22.40;61.00
71837;DHT22;59686;51.716;7.016;2023-07-13T12:24:47;22.30;61.10
71837;DHT22;59686;51.716;7.016;2023-07-13T12:27:26;22.40;60.60
71837;DHT22;59686;51.716;7.016;2023-07-13T12:30:04;22.30;61.90
71837;DHT22;59686;51.716;7.016;2023-07-13T12:32:31;22.20;63.70
71837;DHT22;59686;51.716;7.016;2023-07-13T12:35:12;22.20;64.60
71837;DHT22;59686;51.716;7.016;2023-07-13T12:37:42;22.30;64.80
71837;DHT22;59686;51.716;7.016;2023-07-13T12:40:20;22.20;64.40
71837;DHT22;59686;51.716;7.016;2023-07-13T12:42:50;22.20;64.30
71837;DHT22;59686;51.716;7.016;2023-07-13T12:45:20;22.20;63.40
71837;DHT22;59686;51.716;7.016;2023-07-13T12:47:53;22.20;64.10
71837;DHT22;59686;51.716;7.016;2023-07-13T12:50:22;22.10;65.50
71837;DHT22;59686;51.716;7.016;2023-07-13T12:52:53;22.00;66.90
71837;DHT22;59686;51.716;7.016;2023-07-13T12:55:21;21.90;70.50
71837;DHT22;59686;51.716;7.016;2023-07-13T13:00:24;21.60;76.70
71837;DHT22;59686;51.716;7.016;2023-07-13T13:02:56;21.40;77.30
71837;DHT22;59686;51.716;7.016;2023-07-13T13:05:25;21.30;78.40
71837;DHT22;59686;51.716;7.016;2023-07-13T13:07:51;21.20;78.40
71837;DHT22;59686;51.716;7.016;2023-07-13T13:10:17;21.00;78.40
71837;DHT22;59686;51.716;7.016;2023-07-13T13:12:43;20.80;77.80
71837;DHT22;59686;51.716;7.016;2023-07-13T13:15:10;20.70;78.40
71837;DHT22;59686;51.716;7.016;2023-07-13T13:17:37;20.70;78.40
71837;DHT22;59686;51.716;7.016;2023-07-13T13:20:19;20.70;77.50
71837;DHT22;59686;51.716;7.016;2023-07-13T13:22:45;20.90;77.70
71837;DHT22;59686;51.716;7.016;2023-07-13T13:25:12;20.90;77.50
71837;DHT22;59686;51.716;7.016;2023-07-13T13:27:40;20.90;78.30
71837;DHT22;59686;51.716;7.016;2023-07-13T13:30:17;21.00;77.50
71837;DHT22;59686;51.716;7.016;2023-07-13T13:32:46;21.00;77.20
71837;DHT22;59686;51.716;7.016;2023-07-13T13:35:16;21.00;77.30
71837;DHT22;59686;51.716;7.016;2023-07-13T13:37:43;21.00;76.70
71837;DHT22;59686;51.716;7.016;2023-07-13T13:40:21;21.00;76.70
71837;DHT22;59686;51.716;7.016;2023-07-13T13:42:51;21.00;77.80
71837;DHT22;59686;51.716;7.016;2023-07-13T13:45:18;21.10;76.60
71837;DHT22;59686;51.716;7.016;2023-07-13T13:47:46;21.00;76.90
71837;DHT22;59686;51.716;7.016;2023-07-13T13:50:17;21.00;76.50
71837;DHT22;59686;51.716;7.016;2023-07-13T13:52:44;21.10;76.30
71837;DHT22;59686;51.716;7.016;2023-07-13T13:55:18;21.20;76.30
71837;DHT22;59686;51.716;7.016;2023-07-13T13:57:48;21.20;76.70
71837;DHT22;59686;51.716;7.016;2023-07-13T14:00:20;21.20;77.30
71837;DHT22;59686;51.716;7.016;2023-07-13T14:02:48;21.30;77.30
71837;DHT22;59686;51.716;7.016;2023-07-13T14:05:21;21.30;77.40
71837;DHT22;59686;51.716;7.016;2023-07-13T14:07:47;21.30;77.10
71837;DHT22;59686;51.716;7.016;2023-07-13T14:10:15;21.30;76.30
71837;DHT22;59686;51.716;7.016;2023-07-13T14:12:43;21.40;75.70
71837;DHT22;59686;51.716;7.016;2023-07-13T14:15:24;21.40;76.10
71837;DHT22;59686;51.716;7.016;2023-07-13T14:17:54;21.40;76.10
71837;DHT22;59686;51.716;7.016;2023-07-13T14:20:21;21.40;76.80
71837;DHT22;59686;51.716;7.016;2023-07-13T14:22:50;21.40;76.60
71837;DHT22;59686;51.716;7.016;2023-07-13T14:25:17;21.40;76.80
71837;DHT22;59686;51.716;7.016;2023-07-13T14:27:44;21.40;77.20
71837;DHT22;59686;51.716;7.016;2023-07-13T14:32:39;21.40;77.30
71837;DHT22;59686;51.716;7.016;2023-07-13T14:35:05;21.40;76.80
71837;DHT22;59686;51.716;7.016;2023-07-13T14:37:31;21.40;77.00
71837;DHT22;59686;51.716;7.016;2023-07-13T14:39:59;21.40;76.90
71837;DHT22;59686;51.716;7.016;2023-07-13T14:42:24;21.30;77.50
71837;DHT22;59686;51.716;7.016;2023-07-13T14:44:50;21.40;77.00
71837;DHT22;59686;51.716;7.016;2023-07-13T14:47:18;21.40;76.60
71837;DHT22;59686;51.716;7.016;2023-07-13T14:49:44;21.50;76.50
71837;DHT22;59686;51.716;7.016;2023-07-13T14:52:16;21.60;76.70
71837;DHT22;59686;51.716;7.016;2023-07-13T14:54:43;21.70;77.20
71837;DHT22;59686;51.716;7.016;2023-07-13T14:57:15;21.70;77.00
71837;DHT22;59686;51.716;7.016;2023-07-13T14:59:41;21.70;76.80
71837;DHT22;59686;51.716;7.016;2023-07-13T15:04:45;21.90;76.00
71837;DHT22;59686;51.716;7.016;2023-07-13T15:07:11;21.90;75.80
71837;DHT22;59686;51.716;7.016;2023-07-13T15:09:39;22.00;75.30
71837;DHT22;59686;51.716;7.016;2023-07-13T15:12:05;22.10;75.70
71837;DHT22;59686;51.716;7.016;2023-07-13T15:14:31;22.20;76.50
71837;DHT22;59686;51.716;7.016;2023-07-13T15:16:57;22.20;76.60
71837;DHT22;59686;51.716;7.016;2023-07-13T15:19:25;22.20;76.50
71837;DHT22;59686;51.716;7.016;2023-07-13T15:21:53;22.10;76.40
71837;DHT22;59686;51.716;7.016;2023-07-13T15:24:20;22.10;76.10
71837;DHT22;59686;51.716;7.016;2023-07-13T15:26:47;22.00;76.20
71837;DHT22;59686;51.716;7.016;2023-07-13T15:29:15;21.90;76.10
71837;DHT22;59686;51.716;7.016;2023-07-13T15:31:41;21.90;76.40
71837;DHT22;59686;51.716;7.016;2023-07-13T15:34:18;21.90;76.80
71837;DHT22;59686;51.716;7.016;2023-07-13T15:36:46;21.80;76.90
71837;DHT22;59686;51.716;7.016;2023-07-13T15:39:16;21.90;76.90
71837;DHT22;59686;51.716;7.016;2023-07-13T15:41:45;21.80;77.10
71837;DHT22;59686;51.716;7.016;2023-07-13T15:44:31;21.80;77.60
71837;DHT22;59686;51.716;7.016;2023-07-13T15:46:57;21.70;78.60
71837;DHT22;59686;51.716;7.016;2023-07-13T15:49:25;21.70;78.80
71837;DHT22;59686;51.716;7.016;2023-07-13T15:51:51;21.70;79.30
71837;DHT22;59686;51.716;7.016;2023-07-13T15:54:18;21.60;80.50
71837;DHT22;59686;51.716;7.016;2023-07-13T15:56:47;21.50;80.50
71837;DHT22;59686;51.716;7.016;2023-07-13T15:59:15;21.50;80.60
71837;DHT22;59686;51.716;7.016;2023-07-13T16:01:42;21.50;81.10
71837;DHT22;59686;51.716;7.016;2023-07-13T16:04:11;21.40;80.40
71837;DHT22;59686;51.716;7.016;2023-07-13T16:06:40;21.50;80.30
71837;DHT22;59686;51.716;7.016;2023-07-13T16:09:06;21.50;80.30
71837;DHT22;59686;51.716;7.016;2023-07-13T16:11:35;21.50;79.60
71837;DHT22;59686;51.716;7.016;2023-07-13T16:14:01;21.50;79.10
71837;DHT22;59686;51.716;7.016;2023-07-13T16:16:32;21.50;78.80